sensor_id;sensor_type;location;lat;lon;timestamp;temperature;humidity
50548;DHT22;38013;48.810;8.818;2022-11-14T00:01:09;7.50;76.30
50548;DHT22;38013;48.810;8.818;2022-11-14T00:03:54;7.50;76.10
50548;DHT22;38013;48.810;8.818;2022-11-14T00:06:39;7.50;75.80
50548;DHT22;38013;48.810;8.818;2022-11-14T00:09:25;7.50;75.70
50548;DHT22;38013;48.810;8.818;2022-11-14T00:12:11;7.60;75.60
50548;DHT22;38013;48.810;8.818;2022-11-14T00:14:55;7.60;75.40
50548;DHT22;38013;48.810;8.818;2022-11-14T00:17:39;7.60;75.30
50548;DHT22;38013;48.810;8.818;2022-11-14T00:20:24;7.50;75.20
50548;DHT22;38013;48.810;8.818;2022-11-14T00:23:09;7.50;75.20
50548;DHT22;38013;48.810;8.818;2022-11-14T00:25:53;7.50;75.20
50548;DHT22;38013;48.810;8.818;2022-11-14T00:28:38;7.50;75.10
50548;DHT22;38013;48.810;8.818;2022-11-14T00:31:22;7.50;75.20
50548;DHT22;38013;48.810;8.818;2022-11-14T00:34:07;7.50;75.20
50548;DHT22;38013;48.810;8.818;2022-11-14T00:36:52;7.50;75.30
50548;DHT22;38013;48.810;8.818;2022-11-14T00:39:36;7.50;75.30
50548;DHT22;38013;48.810;8.818;2022-11-14T00:42:20;7.40;75.20
50548;DHT22;38013;48.810;8.818;2022-11-14T00:45:05;7.50;75.50
50548;DHT22;38013;48.810;8.818;2022-11-14T00:47:49;7.50;75.20
50548;DHT22;38013;48.810;8.818;2022-11-14T00:50:34;7.50;75.10
50548;DHT22;38013;48.810;8.818;2022-11-14T00:53:19;7.50;75.00
50548;DHT22;38013;48.810;8.818;2022-11-14T00:56:05;7.50;75.00
50548;DHT22;38013;48.810;8.818;2022-11-14T00:58:49;7.40;74.90
50548;DHT22;38013;48.810;8.818;2022-11-14T01:01:34;7.40;74.90
50548;DHT22;38013;48.810;8.818;2022-11-14T01:04:18;7.40;75.00
50548;DHT22;38013;48.810;8.818;2022-11-14T01:07:03;7.30;75.20
50548;DHT22;38013;48.810;8.818;2022-11-14T01:09:48;7.30;75.40
50548;DHT22;38013;48.810;8.818;2022-11-14T01:12:33;7.30;75.10
50548;DHT22;38013;48.810;8.818;2022-11-14T01:15:17;7.30;75.30
50548;DHT22;38013;48.810;8.818;2022-11-14T01:18:02;7.30;75.30
50548;DHT22;38013;48.810;8.818;2022-11-14T01:20:47;7.20;75.20
50548;DHT22;38013;48.810;8.818;2022-11-14T01:23:32;7.20;75.20
50548;DHT22;38013;48.810;8.818;2022-11-14T01:26:16;7.20;75.20
50548;DHT22;38013;48.810;8.818;2022-11-14T01:29:01;7.20;75.20
50548;DHT22;38013;48.810;8.818;2022-11-14T01:31:45;7.20;75.20
50548;DHT22;38013;48.810;8.818;2022-11-14T01:34:30;7.20;75.30
50548;DHT22;38013;48.810;8.818;2022-11-14T01:37:15;7.20;75.30
50548;DHT22;38013;48.810;8.818;2022-11-14T01:39:59;7.20;75.30
50548;DHT22;38013;48.810;8.818;2022-11-14T01:49:20;7.20;75.30
50548;DHT22;38013;48.810;8.818;2022-11-14T01:52:12;7.20;75.40
50548;DHT22;38013;48.810;8.818;2022-11-14T01:55:01;7.20;75.00
50548;DHT22;38013;48.810;8.818;2022-11-14T01:57:48;7.10;74.90
50548;DHT22;38013;48.810;8.818;2022-11-14T02:00:33;7.10;74.80
50548;DHT22;38013;48.810;8.818;2022-11-14T02:03:18;7.10;75.00
50548;DHT22;38013;48.810;8.818;2022-11-14T02:06:03;7.10;75.20
50548;DHT22;38013;48.810;8.818;2022-11-14T02:08:50;7.10;75.40
50548;DHT22;38013;48.810;8.818;2022-11-14T02:11:39;7.10;75.60
50548;DHT22;38013;48.810;8.818;2022-11-14T02:14:26;7.10;75.60
50548;DHT22;38013;48.810;8.818;2022-11-14T02:17:12;7.10;75.60
50548;DHT22;38013;48.810;8.818;2022-11-14T02:22:53;7.10;75.70
50548;DHT22;38013;48.810;8.818;2022-11-14T02:25:39;7.10;75.40
50548;DHT22;38013;48.810;8.818;2022-11-14T02:28:24;7.10;75.30
50548;DHT22;38013;48.810;8.818;2022-11-14T02:31:09;7.10;75.20
50548;DHT22;38013;48.810;8.818;2022-11-14T02:33:54;7.10;75.10
50548;DHT22;38013;48.810;8.818;2022-11-14T02:36:38;7.10;75.20
50548;DHT22;38013;48.810;8.818;2022-11-14T02:39:23;7.10;75.30
50548;DHT22;38013;48.810;8.818;2022-11-14T02:42:07;7.00;75.40
50548;DHT22;38013;48.810;8.818;2022-11-14T02:44:52;7.00;75.30
50548;DHT22;38013;48.810;8.818;2022-11-14T02:47:36;7.00;75.20
50548;DHT22;38013;48.810;8.818;2022-11-14T02:50:21;6.90;75.00
50548;DHT22;38013;48.810;8.818;2022-11-14T02:53:05;6.90;75.10
50548;DHT22;38013;48.810;8.818;2022-11-14T02:55:50;6.80;75.20
50548;DHT22;38013;48.810;8.818;2022-11-14T02:58:34;6.80;75.50
50548;DHT22;38013;48.810;8.818;2022-11-14T03:01:19;6.70;75.60
50548;DHT22;38013;48.810;8.818;2022-11-14T03:04:04;6.70;75.60
50548;DHT22;38013;48.810;8.818;2022-11-14T03:06:48;6.60;75.90
50548;DHT22;38013;48.810;8.818;2022-11-14T03:09:33;6.60;76.00
50548;DHT22;38013;48.810;8.818;2022-11-14T03:12:18;6.60;76.20
50548;DHT22;38013;48.810;8.818;2022-11-14T03:15:07;6.60;76.20
50548;DHT22;38013;48.810;8.818;2022-11-14T03:17:51;6.60;76.40
50548;DHT22;38013;48.810;8.818;2022-11-14T03:20:36;6.60;76.30
50548;DHT22;38013;48.810;8.818;2022-11-14T03:23:20;6.60;76.40
50548;DHT22;38013;48.810;8.818;2022-11-14T03:26:08;6.50;76.40
50548;DHT22;38013;48.810;8.818;2022-11-14T03:28:53;6.50;76.40
50548;DHT22;38013;48.810;8.818;2022-11-14T03:31:38;6.50;76.50
50548;DHT22;38013;48.810;8.818;2022-11-14T03:34:22;6.50;76.50
50548;DHT22;38013;48.810;8.818;2022-11-14T03:37:07;6.50;76.50
50548;DHT22;38013;48.810;8.818;2022-11-14T03:39:52;6.50;76.30
50548;DHT22;38013;48.810;8.818;2022-11-14T03:42:37;6.50;76.20
50548;DHT22;38013;48.810;8.818;2022-11-14T03:45:21;6.50;76.20
50548;DHT22;38013;48.810;8.818;2022-11-14T03:48:06;6.50;76.90
50548;DHT22;38013;48.810;8.818;2022-11-14T03:50:51;6.40;76.40
50548;DHT22;38013;48.810;8.818;2022-11-14T03:53:36;6.40;76.50
50548;DHT22;38013;48.810;8.818;2022-11-14T03:56:20;6.40;76.50
50548;DHT22;38013;48.810;8.818;2022-11-14T03:59:05;6.40;76.70
50548;DHT22;38013;48.810;8.818;2022-11-14T04:01:49;6.40;76.80
50548;DHT22;38013;48.810;8.818;2022-11-14T04:04:34;6.40;76.90
50548;DHT22;38013;48.810;8.818;2022-11-14T04:07:18;6.40;77.00
50548;DHT22;38013;48.810;8.818;2022-11-14T04:10:03;6.40;76.90
50548;DHT22;38013;48.810;8.818;2022-11-14T04:12:49;6.50;76.90
50548;DHT22;38013;48.810;8.818;2022-11-14T04:15:34;6.50;77.00
50548;DHT22;38013;48.810;8.818;2022-11-14T04:18:19;6.50;76.90
50548;DHT22;38013;48.810;8.818;2022-11-14T04:21:03;6.50;76.80
50548;DHT22;38013;48.810;8.818;2022-11-14T04:23:48;6.50;76.80
50548;DHT22;38013;48.810;8.818;2022-11-14T04:26:32;6.50;76.70
50548;DHT22;38013;48.810;8.818;2022-11-14T04:29:17;6.50;76.70
50548;DHT22;38013;48.810;8.818;2022-11-14T04:32:01;6.50;76.70
50548;DHT22;38013;48.810;8.818;2022-11-14T04:34:46;6.50;76.60
50548;DHT22;38013;48.810;8.818;2022-11-14T04:37:31;6.50;76.50
50548;DHT22;38013;48.810;8.818;2022-11-14T04:40:15;6.50;76.60
50548;DHT22;38013;48.810;8.818;2022-11-14T04:43:00;6.50;76.70
50548;DHT22;38013;48.810;8.818;2022-11-14T04:45:44;6.40;76.60
50548;DHT22;38013;48.810;8.818;2022-11-14T04:48:29;6.40;76.40
50548;DHT22;38013;48.810;8.818;2022-11-14T04:51:13;6.40;76.30
50548;DHT22;38013;48.810;8.818;2022-11-14T04:53:58;6.30;76.20
50548;DHT22;38013;48.810;8.818;2022-11-14T04:56:42;6.30;76.30
50548;DHT22;38013;48.810;8.818;2022-11-14T04:59:27;6.20;76.20
50548;DHT22;38013;48.810;8.818;2022-11-14T05:02:11;6.30;76.40
50548;DHT22;38013;48.810;8.818;2022-11-14T05:04:56;6.20;76.50
50548;DHT22;38013;48.810;8.818;2022-11-14T05:07:40;6.20;76.60
50548;DHT22;38013;48.810;8.818;2022-11-14T05:10:25;6.20;76.50
50548;DHT22;38013;48.810;8.818;2022-11-14T05:13:11;6.20;76.60
50548;DHT22;38013;48.810;8.818;2022-11-14T05:15:59;6.10;76.70
50548;DHT22;38013;48.810;8.818;2022-11-14T05:18:44;6.10;76.80
50548;DHT22;38013;48.810;8.818;2022-11-14T05:21:29;6.10;76.60
50548;DHT22;38013;48.810;8.818;2022-11-14T05:24:13;6.10;76.40
50548;DHT22;38013;48.810;8.818;2022-11-14T05:26:58;6.10;76.40
50548;DHT22;38013;48.810;8.818;2022-11-14T05:29:42;6.00;77.20
50548;DHT22;38013;48.810;8.818;2022-11-14T05:32:27;6.00;76.80
50548;DHT22;38013;48.810;8.818;2022-11-14T05:35:12;6.00;77.00
50548;DHT22;38013;48.810;8.818;2022-11-14T05:37:56;5.90;77.10
50548;DHT22;38013;48.810;8.818;2022-11-14T05:40:43;5.90;77.30
50548;DHT22;38013;48.810;8.818;2022-11-14T05:43:28;6.00;77.50
50548;DHT22;38013;48.810;8.818;2022-11-14T05:46:14;5.90;77.50
50548;DHT22;38013;48.810;8.818;2022-11-14T05:48:59;6.00;77.50
50548;DHT22;38013;48.810;8.818;2022-11-14T05:51:44;6.00;77.50
50548;DHT22;38013;48.810;8.818;2022-11-14T05:54:28;6.00;77.50
50548;DHT22;38013;48.810;8.818;2022-11-14T05:57:13;6.00;77.40
50548;DHT22;38013;48.810;8.818;2022-11-14T05:59:57;6.00;77.30
50548;DHT22;38013;48.810;8.818;2022-11-14T06:02:42;6.00;77.40
50548;DHT22;38013;48.810;8.818;2022-11-14T06:05:28;6.00;77.60
50548;DHT22;38013;48.810;8.818;2022-11-14T06:08:13;6.10;77.60
50548;DHT22;38013;48.810;8.818;2022-11-14T06:11:15;6.10;77.80
50548;DHT22;38013;48.810;8.818;2022-11-14T06:14:00;6.10;78.50
50548;DHT22;38013;48.810;8.818;2022-11-14T06:16:45;6.10;77.90
50548;DHT22;38013;48.810;8.818;2022-11-14T06:19:29;6.20;77.80
50548;DHT22;38013;48.810;8.818;2022-11-14T06:22:14;6.20;77.70
50548;DHT22;38013;48.810;8.818;2022-11-14T06:24:58;6.20;77.60
50548;DHT22;38013;48.810;8.818;2022-11-14T06:27:43;6.20;77.60
50548;DHT22;38013;48.810;8.818;2022-11-14T06:30:27;6.20;77.60
50548;DHT22;38013;48.810;8.818;2022-11-14T06:33:12;6.20;77.70
50548;DHT22;38013;48.810;8.818;2022-11-14T06:35:58;6.20;77.90
50548;DHT22;38013;48.810;8.818;2022-11-14T06:38:46;6.20;77.90
50548;DHT22;38013;48.810;8.818;2022-11-14T06:41:31;6.30;78.10
50548;DHT22;38013;48.810;8.818;2022-11-14T06:44:16;6.30;78.20
50548;DHT22;38013;48.810;8.818;2022-11-14T06:47:00;6.30;78.20
50548;DHT22;38013;48.810;8.818;2022-11-14T06:49:45;6.30;78.30
50548;DHT22;38013;48.810;8.818;2022-11-14T06:52:30;6.40;78.40
50548;DHT22;38013;48.810;8.818;2022-11-14T06:55:14;6.40;78.40
50548;DHT22;38013;48.810;8.818;2022-11-14T06:57:58;6.50;78.50
50548;DHT22;38013;48.810;8.818;2022-11-14T07:00:43;6.50;78.60
50548;DHT22;38013;48.810;8.818;2022-11-14T07:03:28;6.60;79.30
50548;DHT22;38013;48.810;8.818;2022-11-14T07:06:15;6.60;78.60
50548;DHT22;38013;48.810;8.818;2022-11-14T07:09:00;6.70;78.80
50548;DHT22;38013;48.810;8.818;2022-11-14T07:11:45;6.80;78.90
50548;DHT22;38013;48.810;8.818;2022-11-14T07:14:30;6.80;78.90
50548;DHT22;38013;48.810;8.818;2022-11-14T07:17:15;6.80;79.00
50548;DHT22;38013;48.810;8.818;2022-11-14T07:19:59;6.90;79.20
50548;DHT22;38013;48.810;8.818;2022-11-14T07:22:45;7.00;79.20
50548;DHT22;38013;48.810;8.818;2022-11-14T07:25:30;7.10;79.30
50548;DHT22;38013;48.810;8.818;2022-11-14T07:28:15;7.20;79.20
50548;DHT22;38013;48.810;8.818;2022-11-14T07:31:05;7.20;79.00
50548;DHT22;38013;48.810;8.818;2022-11-14T07:33:50;7.30;79.10
50548;DHT22;38013;48.810;8.818;2022-11-14T07:36:34;7.40;79.00
50548;DHT22;38013;48.810;8.818;2022-11-14T07:39:19;7.50;78.90
50548;DHT22;38013;48.810;8.818;2022-11-14T07:42:04;7.60;78.90
50548;DHT22;38013;48.810;8.818;2022-11-14T07:44:48;7.60;78.90
50548;DHT22;38013;48.810;8.818;2022-11-14T07:47:33;7.70;78.90
50548;DHT22;38013;48.810;8.818;2022-11-14T07:50:17;7.80;79.00
50548;DHT22;38013;48.810;8.818;2022-11-14T07:53:02;7.80;79.00
50548;DHT22;38013;48.810;8.818;2022-11-14T07:55:46;7.80;78.90
50548;DHT22;38013;48.810;8.818;2022-11-14T07:58:34;7.90;78.90
50548;DHT22;38013;48.810;8.818;2022-11-14T08:01:19;8.00;78.90
50548;DHT22;38013;48.810;8.818;2022-11-14T08:04:03;8.00;78.90
50548;DHT22;38013;48.810;8.818;2022-11-14T08:06:48;8.10;78.90
50548;DHT22;38013;48.810;8.818;2022-11-14T08:09:32;8.20;79.00
50548;DHT22;38013;48.810;8.818;2022-11-14T08:12:17;8.20;79.00
50548;DHT22;38013;48.810;8.818;2022-11-14T08:15:01;8.30;79.10
50548;DHT22;38013;48.810;8.818;2022-11-14T08:17:46;8.40;79.10
50548;DHT22;38013;48.810;8.818;2022-11-14T08:20:30;8.50;79.20
50548;DHT22;38013;48.810;8.818;2022-11-14T08:23:15;8.60;79.20
50548;DHT22;38013;48.810;8.818;2022-11-14T08:25:59;8.70;79.20
50548;DHT22;38013;48.810;8.818;2022-11-14T08:28:44;8.70;78.90
50548;DHT22;38013;48.810;8.818;2022-11-14T08:31:28;8.80;78.80
50548;DHT22;38013;48.810;8.818;2022-11-14T08:34:13;8.90;78.60
50548;DHT22;38013;48.810;8.818;2022-11-14T08:36:58;9.00;78.40
50548;DHT22;38013;48.810;8.818;2022-11-14T08:39:42;9.10;78.30
50548;DHT22;38013;48.810;8.818;2022-11-14T08:42:27;9.10;78.20
50548;DHT22;38013;48.810;8.818;2022-11-14T08:45:11;9.20;78.10
50548;DHT22;38013;48.810;8.818;2022-11-14T08:47:56;9.30;78.00
50548;DHT22;38013;48.810;8.818;2022-11-14T08:50:41;9.30;77.90
50548;DHT22;38013;48.810;8.818;2022-11-14T08:53:25;9.40;77.90
50548;DHT22;38013;48.810;8.818;2022-11-14T08:56:10;9.40;77.80
50548;DHT22;38013;48.810;8.818;2022-11-14T08:58:54;9.50;77.70
50548;DHT22;38013;48.810;8.818;2022-11-14T09:01:39;9.60;77.70
50548;DHT22;38013;48.810;8.818;2022-11-14T09:04:23;9.60;77.60
50548;DHT22;38013;48.810;8.818;2022-11-14T09:07:08;9.60;77.60
50548;DHT22;38013;48.810;8.818;2022-11-14T09:09:52;9.70;77.70
50548;DHT22;38013;48.810;8.818;2022-11-14T09:12:36;9.80;77.80
50548;DHT22;38013;48.810;8.818;2022-11-14T09:15:21;9.80;77.90
50548;DHT22;38013;48.810;8.818;2022-11-14T09:18:05;9.80;78.00
50548;DHT22;38013;48.810;8.818;2022-11-14T09:20:50;9.90;78.10
50548;DHT22;38013;48.810;8.818;2022-11-14T09:23:35;9.90;78.00
50548;DHT22;38013;48.810;8.818;2022-11-14T09:26:19;10.00;78.10
50548;DHT22;38013;48.810;8.818;2022-11-14T09:29:04;10.00;78.10
50548;DHT22;38013;48.810;8.818;2022-11-14T09:31:51;10.00;78.10
50548;DHT22;38013;48.810;8.818;2022-11-14T09:34:36;10.00;78.20
50548;DHT22;38013;48.810;8.818;2022-11-14T09:37:20;10.00;78.10
50548;DHT22;38013;48.810;8.818;2022-11-14T09:40:07;10.10;78.10
50548;DHT22;38013;48.810;8.818;2022-11-14T09:46:26;10.10;78.40
50548;DHT22;38013;48.810;8.818;2022-11-14T09:49:32;10.10;78.60
50548;DHT22;38013;48.810;8.818;2022-11-14T09:52:33;10.10;78.30
50548;DHT22;38013;48.810;8.818;2022-11-14T09:55:27;10.20;78.80
50548;DHT22;38013;48.810;8.818;2022-11-14T09:58:17;10.20;78.60
50548;DHT22;38013;48.810;8.818;2022-11-14T10:04:16;10.20;78.70
50548;DHT22;38013;48.810;8.818;2022-11-14T10:07:24;10.20;78.60
50548;DHT22;38013;48.810;8.818;2022-11-14T10:13:51;10.20;78.80
50548;DHT22;38013;48.810;8.818;2022-11-14T10:19:54;10.30;78.80
50548;DHT22;38013;48.810;8.818;2022-11-14T10:26:24;10.40;79.00
50548;DHT22;38013;48.810;8.818;2022-11-14T10:29:45;10.40;79.10
50548;DHT22;38013;48.810;8.818;2022-11-14T10:32:45;10.50;79.30
50548;DHT22;38013;48.810;8.818;2022-11-14T10:35:38;10.50;79.00
50548;DHT22;38013;48.810;8.818;2022-11-14T10:38:34;10.50;78.90
50548;DHT22;38013;48.810;8.818;2022-11-14T10:41:24;10.60;79.00
50548;DHT22;38013;48.810;8.818;2022-11-14T10:44:13;10.70;79.00
50548;DHT22;38013;48.810;8.818;2022-11-14T10:47:03;10.70;79.00
50548;DHT22;38013;48.810;8.818;2022-11-14T10:49:53;10.70;78.90
50548;DHT22;38013;48.810;8.818;2022-11-14T10:52:41;10.70;78.90
50548;DHT22;38013;48.810;8.818;2022-11-14T10:55:27;10.80;78.90
50548;DHT22;38013;48.810;8.818;2022-11-14T10:58:12;10.90;78.90
50548;DHT22;38013;48.810;8.818;2022-11-14T11:01:30;10.90;78.90
50548;DHT22;38013;48.810;8.818;2022-11-14T11:04:25;10.90;79.30
50548;DHT22;38013;48.810;8.818;2022-11-14T11:07:24;11.00;79.00
50548;DHT22;38013;48.810;8.818;2022-11-14T11:10:28;11.10;79.00
50548;DHT22;38013;48.810;8.818;2022-11-14T11:13:36;11.20;78.80
50548;DHT22;38013;48.810;8.818;2022-11-14T11:16:27;11.20;79.50
50548;DHT22;38013;48.810;8.818;2022-11-14T11:19:23;11.30;78.80
50548;DHT22;38013;48.810;8.818;2022-11-14T11:22:34;11.40;78.80
50548;DHT22;38013;48.810;8.818;2022-11-14T11:25:25;11.50;78.60
50548;DHT22;38013;48.810;8.818;2022-11-14T11:31:09;11.70;79.60
50548;DHT22;38013;48.810;8.818;2022-11-14T11:33:54;11.70;78.90
50548;DHT22;38013;48.810;8.818;2022-11-14T11:36:48;11.80;78.30
50548;DHT22;38013;48.810;8.818;2022-11-14T11:39:42;12.00;77.90
50548;DHT22;38013;48.810;8.818;2022-11-14T11:42:32;12.00;77.40
50548;DHT22;38013;48.810;8.818;2022-11-14T11:45:27;12.10;77.50
50548;DHT22;38013;48.810;8.818;2022-11-14T11:48:20;12.20;76.80
50548;DHT22;38013;48.810;8.818;2022-11-14T11:51:12;12.30;76.30
50548;DHT22;38013;48.810;8.818;2022-11-14T11:54:03;12.30;76.10
50548;DHT22;38013;48.810;8.818;2022-11-14T11:56:56;12.40;75.60
50548;DHT22;38013;48.810;8.818;2022-11-14T11:59:50;12.40;75.40
50548;DHT22;38013;48.810;8.818;2022-11-14T12:02:41;12.50;75.10
50548;DHT22;38013;48.810;8.818;2022-11-14T12:05:39;12.50;75.00
50548;DHT22;38013;48.810;8.818;2022-11-14T12:09:05;12.50;74.60
50548;DHT22;38013;48.810;8.818;2022-11-14T12:12:12;12.50;74.60
50548;DHT22;38013;48.810;8.818;2022-11-14T12:15:17;12.60;74.70
50548;DHT22;38013;48.810;8.818;2022-11-14T12:18:25;12.60;74.50
50548;DHT22;38013;48.810;8.818;2022-11-14T12:21:37;12.60;74.40
50548;DHT22;38013;48.810;8.818;2022-11-14T12:24:56;12.70;74.30
50548;DHT22;38013;48.810;8.818;2022-11-14T12:31:42;12.90;74.80
50548;DHT22;38013;48.810;8.818;2022-11-14T12:34:33;13.00;74.70
50548;DHT22;38013;48.810;8.818;2022-11-14T12:37:29;13.20;75.10
50548;DHT22;38013;48.810;8.818;2022-11-14T12:40:32;13.30;75.40
50548;DHT22;38013;48.810;8.818;2022-11-14T12:43:33;13.60;75.50
50548;DHT22;38013;48.810;8.818;2022-11-14T12:46:19;13.90;74.70
50548;DHT22;38013;48.810;8.818;2022-11-14T12:49:37;14.10;73.20
50548;DHT22;38013;48.810;8.818;2022-11-14T12:58:17;14.50;71.30
50548;DHT22;38013;48.810;8.818;2022-11-14T13:10:31;14.60;70.00
50548;DHT22;38013;48.810;8.818;2022-11-14T13:13:24;14.60;69.80
50548;DHT22;38013;48.810;8.818;2022-11-14T13:16:31;14.60;70.10
50548;DHT22;38013;48.810;8.818;2022-11-14T13:19:34;14.60;70.00
50548;DHT22;38013;48.810;8.818;2022-11-14T13:25:24;14.50;70.00
50548;DHT22;38013;48.810;8.818;2022-11-14T13:34:36;14.50;70.10
50548;DHT22;38013;48.810;8.818;2022-11-14T13:47:35;14.60;69.90
50548;DHT22;38013;48.810;8.818;2022-11-14T13:50:38;14.70;69.70
50548;DHT22;38013;48.810;8.818;2022-11-14T13:53:27;14.70;69.70
50548;DHT22;38013;48.810;8.818;2022-11-14T13:56:49;14.80;69.60
50548;DHT22;38013;48.810;8.818;2022-11-14T13:59:45;14.80;69.30
50548;DHT22;38013;48.810;8.818;2022-11-14T14:03:08;14.80;69.30
50548;DHT22;38013;48.810;8.818;2022-11-14T14:06:21;14.80;69.10
50548;DHT22;38013;48.810;8.818;2022-11-14T14:09:36;14.80;68.80
50548;DHT22;38013;48.810;8.818;2022-11-14T14:12:52;14.90;69.00
50548;DHT22;38013;48.810;8.818;2022-11-14T14:16:06;14.90;69.00
50548;DHT22;38013;48.810;8.818;2022-11-14T14:19:10;14.80;68.70
50548;DHT22;38013;48.810;8.818;2022-11-14T14:28:22;14.90;68.00
50548;DHT22;38013;48.810;8.818;2022-11-14T14:31:17;14.90;68.00
50548;DHT22;38013;48.810;8.818;2022-11-14T14:34:29;14.90;67.70
50548;DHT22;38013;48.810;8.818;2022-11-14T14:37:24;14.80;67.60
50548;DHT22;38013;48.810;8.818;2022-11-14T14:40:33;14.80;67.50
50548;DHT22;38013;48.810;8.818;2022-11-14T14:43:29;14.80;67.80
50548;DHT22;38013;48.810;8.818;2022-11-14T14:46:21;14.70;67.60
50548;DHT22;38013;48.810;8.818;2022-11-14T14:49:09;14.70;67.60
50548;DHT22;38013;48.810;8.818;2022-11-14T14:51:54;14.60;67.60
50548;DHT22;38013;48.810;8.818;2022-11-14T14:54:38;14.60;67.70
50548;DHT22;38013;48.810;8.818;2022-11-14T14:57:23;14.50;67.80
50548;DHT22;38013;48.810;8.818;2022-11-14T15:00:20;14.50;67.80
50548;DHT22;38013;48.810;8.818;2022-11-14T15:03:08;14.40;68.00
50548;DHT22;38013;48.810;8.818;2022-11-14T15:06:01;14.40;68.20
50548;DHT22;38013;48.810;8.818;2022-11-14T15:08:48;14.40;68.20
50548;DHT22;38013;48.810;8.818;2022-11-14T15:11:33;14.30;68.30
50548;DHT22;38013;48.810;8.818;2022-11-14T15:14:24;14.30;68.50
50548;DHT22;38013;48.810;8.818;2022-11-14T15:17:11;14.30;68.30
50548;DHT22;38013;48.810;8.818;2022-11-14T15:19:55;14.30;68.20
50548;DHT22;38013;48.810;8.818;2022-11-14T15:22:40;14.30;68.20
50548;DHT22;38013;48.810;8.818;2022-11-14T15:25:24;14.20;68.20
50548;DHT22;38013;48.810;8.818;2022-11-14T15:28:18;14.20;68.20
50548;DHT22;38013;48.810;8.818;2022-11-14T15:31:03;14.10;68.10
50548;DHT22;38013;48.810;8.818;2022-11-14T15:34:17;14.10;68.20
50548;DHT22;38013;48.810;8.818;2022-11-14T15:37:14;14.00;68.20
50548;DHT22;38013;48.810;8.818;2022-11-14T15:40:18;14.00;68.30
50548;DHT22;38013;48.810;8.818;2022-11-14T15:46:40;13.80;68.30
50548;DHT22;38013;48.810;8.818;2022-11-14T15:49:26;13.70;68.40
50548;DHT22;38013;48.810;8.818;2022-11-14T15:52:42;13.70;68.60
50548;DHT22;38013;48.810;8.818;2022-11-14T15:55:34;13.60;68.60
50548;DHT22;38013;48.810;8.818;2022-11-14T15:58:19;13.60;68.80
50548;DHT22;38013;48.810;8.818;2022-11-14T16:01:04;13.50;68.80
50548;DHT22;38013;48.810;8.818;2022-11-14T16:03:48;13.40;68.90
50548;DHT22;38013;48.810;8.818;2022-11-14T16:06:34;13.40;69.00
50548;DHT22;38013;48.810;8.818;2022-11-14T16:09:20;13.40;69.10
50548;DHT22;38013;48.810;8.818;2022-11-14T16:12:04;13.30;69.10
50548;DHT22;38013;48.810;8.818;2022-11-14T16:14:49;13.30;69.20
50548;DHT22;38013;48.810;8.818;2022-11-14T16:17:35;13.20;69.30
50548;DHT22;38013;48.810;8.818;2022-11-14T16:20:26;13.20;69.50
50548;DHT22;38013;48.810;8.818;2022-11-14T16:23:12;13.10;69.60
50548;DHT22;38013;48.810;8.818;2022-11-14T16:25:59;13.00;69.60
50548;DHT22;38013;48.810;8.818;2022-11-14T16:28:43;13.00;69.80
50548;DHT22;38013;48.810;8.818;2022-11-14T16:31:28;12.90;69.90
50548;DHT22;38013;48.810;8.818;2022-11-14T16:34:24;12.80;70.00
50548;DHT22;38013;48.810;8.818;2022-11-14T16:37:13;12.80;70.20
50548;DHT22;38013;48.810;8.818;2022-11-14T16:39:58;12.80;70.30
50548;DHT22;38013;48.810;8.818;2022-11-14T16:42:42;12.80;70.50
50548;DHT22;38013;48.810;8.818;2022-11-14T16:45:27;12.80;70.60
50548;DHT22;38013;48.810;8.818;2022-11-14T16:48:12;12.70;70.70
50548;DHT22;38013;48.810;8.818;2022-11-14T16:51:02;12.80;70.80
50548;DHT22;38013;48.810;8.818;2022-11-14T16:53:47;12.80;70.80
50548;DHT22;38013;48.810;8.818;2022-11-14T16:56:31;12.80;70.80
50548;DHT22;38013;48.810;8.818;2022-11-14T16:59:16;12.80;70.80
50548;DHT22;38013;48.810;8.818;2022-11-14T17:02:00;12.80;70.90
50548;DHT22;38013;48.810;8.818;2022-11-14T17:04:45;12.90;70.90
50548;DHT22;38013;48.810;8.818;2022-11-14T17:07:29;12.90;70.80
50548;DHT22;38013;48.810;8.818;2022-11-14T17:10:16;12.90;70.70
50548;DHT22;38013;48.810;8.818;2022-11-14T17:13:00;12.90;70.60
50548;DHT22;38013;48.810;8.818;2022-11-14T17:15:45;13.00;70.60
50548;DHT22;38013;48.810;8.818;2022-11-14T17:18:30;13.00;70.50
50548;DHT22;38013;48.810;8.818;2022-11-14T17:21:14;13.00;70.50
50548;DHT22;38013;48.810;8.818;2022-11-14T17:24:00;13.00;70.40
50548;DHT22;38013;48.810;8.818;2022-11-14T17:26:44;13.00;70.40
50548;DHT22;38013;48.810;8.818;2022-11-14T17:29:29;13.00;70.40
50548;DHT22;38013;48.810;8.818;2022-11-14T17:32:13;13.00;70.30
50548;DHT22;38013;48.810;8.818;2022-11-14T17:34:58;13.00;70.30
50548;DHT22;38013;48.810;8.818;2022-11-14T17:37:42;12.90;70.50
50548;DHT22;38013;48.810;8.818;2022-11-14T17:40:27;13.00;70.60
50548;DHT22;38013;48.810;8.818;2022-11-14T17:43:14;12.90;70.70
50548;DHT22;38013;48.810;8.818;2022-11-14T17:46:00;12.90;70.80
50548;DHT22;38013;48.810;8.818;2022-11-14T17:48:45;12.90;70.90
50548;DHT22;38013;48.810;8.818;2022-11-14T17:51:29;12.90;71.00
50548;DHT22;38013;48.810;8.818;2022-11-14T17:54:14;13.00;71.20
50548;DHT22;38013;48.810;8.818;2022-11-14T17:56:58;13.00;71.30
50548;DHT22;38013;48.810;8.818;2022-11-14T17:59:44;13.00;71.40
50548;DHT22;38013;48.810;8.818;2022-11-14T18:02:28;13.00;71.60
50548;DHT22;38013;48.810;8.818;2022-11-14T18:05:13;13.00;71.70
50548;DHT22;38013;48.810;8.818;2022-11-14T18:07:57;13.00;71.80
50548;DHT22;38013;48.810;8.818;2022-11-14T18:10:42;13.00;71.90
50548;DHT22;38013;48.810;8.818;2022-11-14T18:13:27;12.90;72.00
50548;DHT22;38013;48.810;8.818;2022-11-14T18:16:15;12.90;72.20
50548;DHT22;38013;48.810;8.818;2022-11-14T18:19:00;12.80;72.20
50548;DHT22;38013;48.810;8.818;2022-11-14T18:21:45;12.90;72.30
50548;DHT22;38013;48.810;8.818;2022-11-14T18:24:29;12.80;72.30
50548;DHT22;38013;48.810;8.818;2022-11-14T18:27:14;12.80;72.40
50548;DHT22;38013;48.810;8.818;2022-11-14T18:29:58;12.80;72.40
50548;DHT22;38013;48.810;8.818;2022-11-14T18:32:43;12.80;72.40
50548;DHT22;38013;48.810;8.818;2022-11-14T18:35:27;12.80;72.40
50548;DHT22;38013;48.810;8.818;2022-11-14T18:38:12;12.80;72.30
50548;DHT22;38013;48.810;8.818;2022-11-14T18:40:57;12.90;72.30
50548;DHT22;38013;48.810;8.818;2022-11-14T18:43:42;12.90;72.30
50548;DHT22;38013;48.810;8.818;2022-11-14T18:46:27;12.90;72.30
50548;DHT22;38013;48.810;8.818;2022-11-14T18:49:12;12.90;72.80
50548;DHT22;38013;48.810;8.818;2022-11-14T18:51:57;13.00;72.20
50548;DHT22;38013;48.810;8.818;2022-11-14T18:54:41;13.00;72.20
50548;DHT22;38013;48.810;8.818;2022-11-14T18:57:26;13.00;72.20
50548;DHT22;38013;48.810;8.818;2022-11-14T19:00:11;12.90;72.00
50548;DHT22;38013;48.810;8.818;2022-11-14T19:02:56;12.90;71.90
50548;DHT22;38013;48.810;8.818;2022-11-14T19:05:41;12.90;72.00
50548;DHT22;38013;48.810;8.818;2022-11-14T19:08:25;12.80;72.00
50548;DHT22;38013;48.810;8.818;2022-11-14T19:11:11;12.80;72.10